Time;durP1;ratioP1;P1;durP2;ratioP2;P2;SDS_P1;SDS_P2;PMS_P1;PMS_P2;Temp;Humidity;BMP_temperature;BMP_pressure;BME280_temperature;BME280_humidity;BME280_pressure;Samples;Min_cycle;Max_cycle;Signal;HPM_P1;HPM_P2
2023/06/24 00:01:15;;;;;;;33.72;15.57;;;;;;;-144.47;100.00;52772.69;5039172;28;20504;-66
2023/06/24 00:03:46;;;;;;;40.88;17.08;;;;;;;-144.47;100.00;52760.75;5031407;28;20075;-66
2023/06/24 00:06:17;;;;;;;30.27;14.93;;;;;;;-144.47;100.00;52762.75;5050976;22;20176;-69
2023/06/24 00:08:43;;;;;;;27.25;14.88;;;;;;;-144.47;100.00;52772.69;5010499;28;20057;-69
2023/06/24 00:11:09;;;;;;;30.63;15.38;;;;;;;-144.47;100.00;52744.88;5028492;28;20439;-66
2023/06/24 00:13:34;;;;;;;35.53;17.17;;;;;;;-144.47;100.00;52764.72;5027792;28;20211;-68
2023/06/24 00:15:59;;;;;;;24.73;14.63;;;;;;;-144.47;100.00;52766.72;5028422;28;20113;-67
2023/06/24 00:18:29;;;;;;;32.28;16.15;;;;;;;-144.47;100.00;52774.66;5015049;28;20112;-68
2023/06/24 00:20:56;;;;;;;26.55;15.05;;;;;;;-144.47;100.00;52764.72;5028809;28;20116;-67
2023/06/24 00:23:26;;;;;;;36.03;14.48;;;;;;;-144.47;100.00;52760.75;5015368;28;20248;-67
2023/06/24 00:25:53;;;;;;;34.67;14.98;;;;;;;-144.47;100.00;52776.66;5010767;28;20029;-68
2023/06/24 00:28:18;;;;;;;27.23;15.93;;;;;;;-144.47;100.00;52760.75;5027506;28;20025;-69
2023/06/24 00:30:44;;;;;;;28.83;14.52;;;;;;;-144.47;100.00;52748.84;5022112;28;20356;-69
2023/06/24 00:33:11;;;;;;;24.70;13.75;;;;;;;-144.47;100.00;52784.59;5028018;28;20040;-69
2023/06/24 00:35:37;;;;;;;29.42;14.38;;;;;;;-144.47;100.00;52768.69;5028156;28;20503;-70
2023/06/24 00:38:03;;;;;;;24.40;13.73;;;;;;;-144.47;100.00;52738.91;5020995;28;20063;-68
2023/06/24 00:40:29;;;;;;;24.63;12.77;;;;;;;-144.47;100.00;52756.78;5015613;28;20108;-70
2023/06/24 00:42:55;;;;;;;28.15;13.27;;;;;;;-144.47;100.00;52776.66;5008689;28;20133;-70
2023/06/24 00:45:21;;;;;;;29.55;14.15;;;;;;;-144.47;100.00;52744.88;5021509;28;20029;-68
2023/06/24 00:47:46;;;;;;;23.60;13.60;;;;;;;-144.47;100.00;52768.69;5008314;28;20043;-67
2023/06/24 00:50:12;;;;;;;17.02;11.88;;;;;;;-144.47;100.00;52774.66;5021657;28;20034;-69
2023/06/24 00:52:42;;;;;;;24.63;12.77;;;;;;;-144.47;100.00;52786.56;5015484;28;20036;-69
2023/06/24 00:55:17;;;;;;;21.35;12.40;;;;;;;-144.47;100.00;52776.66;5008399;28;20033;-68
2023/06/24 00:57:51;;;;;;;22.83;11.90;;;;;;;-144.47;100.00;52760.75;5008148;28;20026;-69
2023/06/24 01:00:19;;;;;;;25.50;11.32;;;;;;;-144.47;100.00;52772.69;5009590;28;20103;-69
2023/06/24 01:02:47;;;;;;;23.95;12.10;;;;;;;-144.47;100.00;52766.72;5017540;28;20025;-68
2023/06/24 01:05:13;;;;;;;31.33;13.50;;;;;;;-144.47;100.00;52762.75;5027176;28;20037;-67
2023/06/24 01:07:39;;;;;;;23.48;12.77;;;;;;;-144.47;100.00;52772.69;5027522;28;20431;-69
2023/06/24 01:10:06;;;;;;;29.85;12.45;;;;;;;-144.47;100.00;52796.50;5018154;28;20027;-68
2023/06/24 01:12:38;;;;;;;27.95;13.00;;;;;;;-144.47;100.00;52764.72;5027671;28;20076;-68
2023/06/24 01:15:06;;;;;;;26.33;12.70;;;;;;;-144.47;100.00;52768.69;5008738;28;20565;-66
2023/06/24 01:18:10;;;;;;;28.47;13.13;;;;;;;-144.47;100.00;52764.72;5022564;28;20616;-68
2023/06/24 01:20:36;;;;;;;25.38;12.63;;;;;;;-144.47;100.00;52756.78;5027737;28;20155;-68
2023/06/24 01:23:19;;;;;;;30.42;14.18;;;;;;;-144.47;100.00;52776.66;5018628;28;20026;-68
2023/06/24 01:25:50;;;;;;;32.05;13.45;;;;;;;-144.47;100.00;52784.59;5009027;28;20029;-69
2023/06/24 01:28:46;;;;;;;32.83;14.30;;;;;;;-144.47;100.00;52784.59;5001889;28;20018;-68
2023/06/24 01:31:23;;;;;;;25.15;13.07;;;;;;;-144.47;100.00;52754.81;5008017;28;20440;-70
2023/06/24 01:34:09;;;;;;;32.25;12.88;;;;;;;-144.47;100.00;52762.75;5007412;28;20060;-66
2023/06/24 01:36:37;;;;;;;28.35;13.82;;;;;;;-144.47;100.00;52758.78;5001148;28;20026;-68
2023/06/24 01:39:07;;;;;;;32.28;14.02;;;;;;;-144.47;100.00;52780.63;5023199;28;20028;-67
2023/06/24 01:41:39;;;;;;;42.55;14.23;;;;;;;-144.47;100.00;52778.63;5017422;28;20038;-67
2023/06/24 01:44:09;;;;;;;32.72;14.00;;;;;;;-144.47;100.00;52768.69;5023828;28;20049;-69
2023/06/24 01:46:35;;;;;;;31.77;14.43;;;;;;;-144.47;100.00;52740.91;5031323;28;20056;-68
2023/06/24 01:49:04;;;;;;;32.80;14.07;;;;;;;-144.47;100.00;52766.72;5013781;28;20034;-68
2023/06/24 01:51:32;;;;;;;27.63;13.35;;;;;;;-144.47;100.00;52768.69;5022998;28;20173;-68
2023/06/24 01:54:02;;;;;;;28.52;13.45;;;;;;;-144.47;100.00;52754.81;5025834;28;20022;-69
2023/06/24 01:56:28;;;;;;;28.38;13.90;;;;;;;-144.47;100.00;52796.50;5014100;28;20689;-67
2023/06/24 01:58:57;;;;;;;37.90;13.70;;;;;;;-144.47;100.00;52784.59;5016492;28;20025;-67
2023/06/24 02:01:24;;;;;;;36.88;14.30;;;;;;;-144.47;100.00;52790.56;5016280;28;20142;-68
2023/06/24 02:03:51;;;;;;;36.30;14.43;;;;;;;-144.47;100.00;52770.69;5030474;28;20451;-67
2023/06/24 02:06:19;;;;;;;39.50;16.77;;;;;;;-144.47;100.00;52790.56;5013630;28;20029;-68
2023/06/24 02:08:47;;;;;;;37.97;16.13;;;;;;;-144.47;100.00;52768.69;5024931;28;20037;-67
2023/06/24 02:11:14;;;;;;;31.60;14.50;;;;;;;-144.47;100.00;52760.75;5023830;28;20064;-68
2023/06/24 02:13:41;;;;;;;26.83;15.15;;;;;;;-144.47;100.00;52782.59;5005864;28;20037;-69
2023/06/24 02:16:09;;;;;;;27.73;15.00;;;;;;;-144.47;100.00;52768.69;5020151;28;20032;-68
2023/06/24 02:18:37;;;;;;;33.42;14.93;;;;;;;-144.47;100.00;52790.56;5031087;28;20438;-67
2023/06/24 02:21:03;;;;;;;36.60;14.40;;;;;;;-144.47;100.00;52760.75;5030717;28;20041;-68
2023/06/24 02:23:29;;;;;;;30.83;13.93;;;;;;;-144.47;100.00;52786.56;5017805;28;20024;-68
2023/06/24 02:25:56;;;;;;;44.13;14.85;;;;;;;-144.47;100.00;52764.72;4994376;28;20067;-66
2023/06/24 02:28:22;;;;;;;42.90;15.73;;;;;;;-144.47;100.00;52742.88;5010902;28;20021;-67
2023/06/24 02:30:49;;;;;;;35.63;14.13;;;;;;;-144.47;100.00;52784.59;5011644;28;20124;-68
2023/06/24 02:33:14;;;;;;;28.65;14.65;;;;;;;-144.47;100.00;52784.59;5022840;28;20040;-68
2023/06/24 02:35:41;;;;;;;28.35;14.10;;;;;;;-144.47;100.00;52770.69;5025266;28;20030;-68
2023/06/24 02:38:07;;;;;;;31.70;15.88;;;;;;;-144.47;100.00;52766.72;5030102;28;20527;-68
2023/06/24 02:40:33;;;;;;;28.98;14.93;;;;;;;-144.47;100.00;52798.50;5030309;28;20037;-68
2023/06/24 02:43:00;;;;;;;31.15;14.85;;;;;;;-144.47;100.00;52798.50;5029921;28;20018;-67
2023/06/24 02:45:26;;;;;;;35.97;13.93;;;;;;;-144.47;100.00;52780.63;5029405;28;20022;-67
2023/06/24 02:47:52;;;;;;;33.85;15.98;;;;;;;-144.47;100.00;52774.66;5017781;28;20487;-68
2023/06/24 02:50:19;;;;;;;41.30;16.25;;;;;;;-144.47;100.00;52784.59;5030072;28;20122;-65
2023/06/24 02:52:45;;;;;;;44.17;16.17;;;;;;;-144.47;100.00;52790.56;5022964;28;20022;-67
2023/06/24 02:55:11;;;;;;;36.33;16.02;;;;;;;-144.47;100.00;52776.66;4995653;28;20438;-68
2023/06/24 02:57:39;;;;;;;35.05;14.55;;;;;;;-144.47;100.00;52782.59;5025861;28;20028;-66
2023/06/24 03:00:05;;;;;;;32.47;15.80;;;;;;;-144.47;100.00;52766.72;5011514;28;20026;-67
2023/06/24 03:02:32;;;;;;;41.38;15.48;;;;;;;-144.47;100.00;52772.69;5030386;28;20022;-68
2023/06/24 03:04:58;;;;;;;37.42;15.18;;;;;;;-144.47;100.00;52776.66;5029815;28;20494;-68
2023/06/24 03:07:24;;;;;;;39.55;15.07;;;;;;;-144.47;100.00;52786.56;5029681;28;20037;-69
2023/06/24 03:09:50;;;;;;;39.97;15.27;;;;;;;-144.47;100.00;52770.69;5029795;28;20033;-69
2023/06/24 03:12:16;;;;;;;37.65;15.98;;;;;;;-144.47;100.00;52790.56;5029379;28;20025;-66
2023/06/24 03:14:41;;;;;;;40.05;17.35;;;;;;;-144.47;100.00;52748.84;5013852;28;20388;-69
2023/06/24 03:17:06;;;;;;;33.45;14.68;;;;;;;-144.47;100.00;52806.44;5018601;28;20542;-68
2023/06/24 03:19:32;;;;;;;29.52;14.57;;;;;;;-144.47;100.00;52786.56;5028002;28;20391;-68
2023/06/24 03:21:57;;;;;;;23.55;12.88;;;;;;;-144.47;100.00;52780.63;5018832;28;20483;-68
2023/06/24 03:24:22;;;;;;;31.90;14.68;;;;;;;-144.47;100.00;52768.69;4997142;28;20472;-69
2023/06/24 03:26:50;;;;;;;29.70;13.80;;;;;;;-144.47;100.00;52768.69;5017957;28;20022;-67
2023/06/24 03:29:15;;;;;;;34.90;14.43;;;;;;;-144.47;100.00;52788.56;5020925;28;20033;-66
2023/06/24 03:31:43;;;;;;;27.10;13.02;;;;;;;-144.47;100.00;52768.69;5000205;28;20078;-67
2023/06/24 03:34:13;;;;;;;32.30;13.40;;;;;;;-144.47;100.00;52780.63;5027080;28;20025;-67
2023/06/24 03:36:39;;;;;;;28.10;13.10;;;;;;;-144.47;100.00;52792.53;4991886;28;20117;-67
2023/06/24 03:39:05;;;;;;;28.98;12.80;;;;;;;-144.47;100.00;52774.66;5009510;28;20105;-67
2023/06/24 03:41:30;;;;;;;27.25;13.75;;;;;;;-144.47;100.00;52770.69;5018125;28;20017;-68
2023/06/24 03:43:56;;;;;;;25.38;13.27;;;;;;;-144.47;100.00;52792.53;5026573;28;20026;-67
2023/06/24 03:46:21;;;;;;;23.05;11.20;;;;;;;-144.47;100.00;52764.72;5017904;28;20041;-69
2023/06/24 03:48:47;;;;;;;35.78;14.25;;;;;;;-144.47;100.00;52754.81;5015943;28;20033;-69
2023/06/24 03:51:12;;;;;;;25.10;12.57;;;;;;;-144.47;100.00;52768.69;5029190;28;20029;-69
2023/06/24 03:53:38;;;;;;;22.40;13.15;;;;;;;-144.47;100.00;52768.69;5027554;28;20065;-67
2023/06/24 03:56:04;;;;;;;23.20;12.35;;;;;;;-144.47;100.00;52780.63;5017663;28;20083;-68
2023/06/24 03:58:29;;;;;;;26.08;13.35;;;;;;;-144.47;100.00;52772.69;5027448;28;20466;-68
2023/06/24 04:00:56;;;;;;;23.27;12.80;;;;;;;-144.47;100.00;52774.66;4988656;28;20587;-69
2023/06/24 04:03:25;;;;;;;25.45;12.88;;;;;;;-144.47;100.00;52788.56;5010846;28;20025;-70
2023/06/24 04:05:51;;;;;;;29.52;13.05;;;;;;;-144.47;100.00;52762.75;5020829;28;20101;-68
2023/06/24 04:08:17;;;;;;;22.95;12.98;;;;;;;-144.47;100.00;52790.56;5024131;28;20564;-67
2023/06/24 04:10:43;;;;;;;26.90;13.32;;;;;;;-144.47;100.00;52792.53;5029250;28;20029;-69
2023/06/24 04:13:08;;;;;;;25.70;11.88;;;;;;;-144.47;100.00;52778.63;5025395;28;20029;-67
2023/06/24 04:15:34;;;;;;;22.63;11.45;;;;;;;-144.47;100.00;52794.53;5008549;28;20025;-68
2023/06/24 04:17:59;;;;;;;37.90;12.68;;;;;;;-144.47;100.00;52800.47;5022167;28;20029;-68
2023/06/24 04:20:24;;;;;;;21.60;10.88;;;;;;;-144.47;100.00;52782.59;5018221;28;20032;-69
2023/06/24 04:22:50;;;;;;;27.83;11.23;;;;;;;-144.47;100.00;52750.81;5021694;28;20502;-67
2023/06/24 04:25:15;;;;;;;28.00;12.60;;;;;;;-144.47;100.00;52802.47;5008456;28;20022;-65
2023/06/24 04:27:41;;;;;;;28.55;11.90;;;;;;;-144.47;100.00;52806.44;5009070;28;20041;-68
2023/06/24 04:30:06;;;;;;;24.95;12.15;;;;;;;-144.47;100.00;52782.59;5008791;28;20026;-67
2023/06/24 04:32:32;;;;;;;25.30;11.95;;;;;;;-144.47;100.00;52766.72;5008783;28;20129;-67
2023/06/24 04:35:04;;;;;;;25.58;12.13;;;;;;;-144.47;100.00;52774.66;5016992;28;20041;-67
2023/06/24 04:37:29;;;;;;;32.35;12.30;;;;;;;-144.47;100.00;52784.59;5011988;28;20120;-68
2023/06/24 04:39:55;;;;;;;17.05;10.27;;;;;;;-144.47;100.00;52826.31;5017980;28;20503;-67
2023/06/24 04:42:20;;;;;;;21.02;11.57;;;;;;;-144.47;100.00;52798.50;5027948;28;20021;-68
2023/06/24 04:44:45;;;;;;;26.55;11.32;;;;;;;-144.47;100.00;52780.63;5027453;28;20033;-67
2023/06/24 04:47:13;;;;;;;19.50;11.15;;;;;;;-144.47;100.00;52794.53;5025648;28;20035;-70
2023/06/24 04:49:39;;;;;;;20.23;11.18;;;;;;;-144.47;100.00;52778.63;5018162;28;20029;-68
2023/06/24 04:52:06;;;;;;;19.13;9.80;;;;;;;-144.47;100.00;52780.63;5015217;28;20048;-68
2023/06/24 04:54:32;;;;;;;21.38;10.68;;;;;;;-144.47;100.00;52784.59;5027808;28;20059;-69
2023/06/24 04:56:57;;;;;;;19.42;10.57;;;;;;;-144.47;100.00;52784.59;5027992;28;20108;-68
2023/06/24 04:59:23;;;;;;;21.15;11.05;;;;;;;-144.47;100.00;52796.50;5024069;28;20030;-68
2023/06/24 05:01:48;;;;;;;20.50;10.00;;;;;;;-144.47;100.00;52788.56;5021684;28;20116;-69
2023/06/24 05:04:13;;;;;;;20.95;9.15;;;;;;;-144.47;100.00;52788.56;5027588;28;20033;-69
2023/06/24 05:06:38;;;;;;;26.00;10.00;;;;;;;-144.47;100.00;52778.63;5024828;28;20084;-69
2023/06/24 05:09:04;;;;;;;24.27;10.70;;;;;;;-144.47;100.00;52816.38;5017704;28;20493;-66
2023/06/24 05:11:29;;;;;;;18.67;10.68;;;;;;;-144.47;100.00;52776.66;5027815;28;20371;-68
2023/06/24 05:13:56;;;;;;;23.77;10.20;;;;;;;-144.47;100.00;52746.84;5017833;28;20129;-67
2023/06/24 05:16:23;;;;;;;27.50;10.35;;;;;;;-144.47;100.00;52824.31;5017525;28;20018;-68
2023/06/24 05:18:49;;;;;;;15.07;8.93;;;;;;;-144.47;100.00;52764.72;5028086;28;20387;-68
2023/06/24 05:21:14;;;;;;;17.88;9.35;;;;;;;-144.47;100.00;52778.63;5027390;28;20017;-67
2023/06/24 05:23:40;;;;;;;21.52;9.93;;;;;;;-144.47;100.00;52758.78;5010306;28;20029;-69
2023/06/24 05:26:05;;;;;;;19.08;9.10;;;;;;;-144.47;100.00;52774.66;5009375;28;20026;-67
2023/06/24 05:28:30;;;;;;;18.40;9.20;;;;;;;-144.47;100.00;52784.59;5021730;28;20033;-68
2023/06/24 05:30:56;;;;;;;15.82;8.95;;;;;;;-144.47;100.00;52766.72;5007494;28;20539;-68
2023/06/24 05:33:22;;;;;;;19.67;8.88;;;;;;;-144.47;100.00;52780.63;5016385;28;20037;-70
2023/06/24 05:35:47;;;;;;;19.48;9.80;;;;;;;-144.47;100.00;52782.59;5012059;28;20018;-68
2023/06/24 05:38:12;;;;;;;23.55;10.82;;;;;;;-144.47;100.00;52780.63;4989853;28;20190;-68
2023/06/24 05:40:38;;;;;;;18.25;9.32;;;;;;;-144.47;100.00;52782.59;5020878;28;20021;-69
2023/06/24 05:43:03;;;;;;;19.20;9.75;;;;;;;-144.47;100.00;52796.50;5015833;28;20112;-66
2023/06/24 05:45:29;;;;;;;19.27;9.40;;;;;;;-144.47;100.00;52762.75;5026974;28;20113;-69
2023/06/24 05:47:54;;;;;;;19.08;9.57;;;;;;;-144.47;100.00;52798.50;5018570;28;20399;-67
2023/06/24 05:50:19;;;;;;;15.63;8.35;;;;;;;-144.47;100.00;52752.81;5004614;28;20085;-68
2023/06/24 05:52:45;;;;;;;14.85;8.80;;;;;;;-144.47;100.00;52756.78;5027276;28;20037;-69
2023/06/24 05:55:10;;;;;;;19.95;8.73;;;;;;;-144.47;100.00;52766.72;5025031;28;20080;-67
2023/06/24 05:57:36;;;;;;;21.55;9.68;;;;;;;-144.47;100.00;52788.56;4989758;28;20037;-71
2023/06/24 06:00:03;;;;;;;18.80;8.95;;;;;;;-144.47;100.00;52790.56;5012430;28;20034;-68
2023/06/24 06:02:28;;;;;;;16.95;9.20;;;;;;;-144.47;100.00;52754.81;5027144;28;20033;-68
2023/06/24 06:04:54;;;;;;;18.27;9.13;;;;;;;-144.47;100.00;52776.66;5011709;28;20032;-66
2023/06/24 06:07:19;;;;;;;19.80;9.18;;;;;;;-144.47;100.00;52776.66;5023793;22;20076;-67
2023/06/24 06:09:44;;;;;;;17.30;8.75;;;;;;;-144.47;100.00;52788.56;5011018;28;20056;-67
2023/06/24 06:12:10;;;;;;;19.63;8.98;;;;;;;-144.47;100.00;52748.84;5029143;28;20041;-67
2023/06/24 06:14:35;;;;;;;22.05;9.65;;;;;;;-144.47;100.00;52772.69;4996965;28;20030;-69
2023/06/24 06:17:01;;;;;;;17.33;8.73;;;;;;;-144.47;100.00;52792.53;5016881;28;20108;-67
2023/06/24 06:19:26;;;;;;;12.35;7.82;;;;;;;-144.47;100.00;52776.66;5014903;28;20029;-67
2023/06/24 06:21:51;;;;;;;14.48;8.35;;;;;;;-144.47;100.00;52784.59;5016445;28;20028;-65
2023/06/24 06:24:17;;;;;;;13.48;8.18;;;;;;;-144.47;100.00;52766.72;5006334;28;20468;-68
2023/06/24 06:26:43;;;;;;;20.20;8.77;;;;;;;-144.47;100.00;52770.69;4994680;28;20624;-68
2023/06/24 06:29:09;;;;;;;17.70;10.07;;;;;;;-144.47;100.00;52760.75;4987024;28;20029;-68
2023/06/24 06:31:34;;;;;;;16.08;8.07;;;;;;;-144.47;100.00;52778.63;5010775;28;20080;-69
2023/06/24 06:34:01;;;;;;;23.40;8.65;;;;;;;-144.47;100.00;52780.63;5019854;28;20036;-69
2023/06/24 06:36:27;;;;;;;21.95;8.80;;;;;;;-144.47;100.00;52760.75;5015671;28;20032;-68
2023/06/24 06:38:52;;;;;;;16.00;8.68;;;;;;;-144.47;100.00;52768.69;5027533;28;20033;-69
2023/06/24 06:41:23;;;;;;;16.48;8.20;;;;;;;-144.47;100.00;52768.69;5033088;28;20086;-69
2023/06/24 06:43:49;;;;;;;19.90;8.98;;;;;;;-144.47;100.00;52780.63;5017575;28;20048;-67
2023/06/24 06:46:14;;;;;;;15.20;7.57;;;;;;;-144.47;100.00;52764.72;5011464;28;20053;-68
2023/06/24 06:48:40;;;;;;;17.92;8.30;;;;;;;-144.47;100.00;52762.75;5014418;28;20040;-68
2023/06/24 06:51:05;;;;;;;14.05;8.18;;;;;;;-144.47;100.00;52730.97;5007246;28;20033;-67
2023/06/24 06:53:30;;;;;;;15.30;8.93;;;;;;;-144.47;100.00;52740.91;5006787;28;20294;-67
2023/06/24 06:55:56;;;;;;;20.35;9.15;;;;;;;-144.47;100.00;52760.75;4999694;28;20026;-68
2023/06/24 06:58:21;;;;;;;13.82;8.65;;;;;;;-144.47;100.00;52764.72;4998976;28;20053;-68
2023/06/24 07:00:47;;;;;;;16.63;9.05;;;;;;;-144.47;100.00;52768.69;5005383;28;20053;-67
2023/06/24 07:03:12;;;;;;;15.80;8.93;;;;;;;-144.47;100.00;52742.88;5013459;28;20045;-67
2023/06/24 07:05:37;;;;;;;17.23;8.25;;;;;;;-144.47;100.00;52752.81;5025396;28;20065;-68
2023/06/24 07:08:05;;;;;;;13.80;8.40;;;;;;;-144.47;100.00;52760.75;5016861;28;20038;-66
2023/06/24 07:10:30;;;;;;;22.95;8.30;;;;;;;-144.47;100.00;52774.66;5021191;28;20021;-67
2023/06/24 07:12:57;;;;;;;16.13;7.72;;;;;;;-144.47;99.35;52770.69;5030326;28;20032;-66
2023/06/24 07:15:27;;;;;;;15.00;7.85;;;;;;;-144.47;100.00;52762.75;5017339;28;20501;-68
2023/06/24 07:17:53;;;;;;;14.18;7.82;;;;;;;-144.47;99.95;52764.72;5028921;28;20642;-70
2023/06/24 07:20:19;;;;;;;15.35;7.50;;;;;;;-144.47;100.00;52762.75;5018714;28;20100;-69
2023/06/24 07:22:45;;;;;;;12.27;7.32;;;;;;;-144.47;100.00;52758.78;5021143;28;20056;-69
2023/06/24 07:25:11;;;;;;;14.57;7.47;;;;;;;-144.47;100.00;52754.81;5014894;28;20025;-67
2023/06/24 07:27:37;;;;;;;12.48;7.43;;;;;;;-144.47;99.39;52790.56;5011659;28;20025;-71
2023/06/24 07:30:04;;;;;;;18.42;7.38;;;;;;;-144.47;98.50;52754.81;5013725;28;20395;-67
2023/06/24 07:32:30;;;;;;;16.38;7.47;;;;;;;-144.47;96.59;52760.75;5029593;28;20105;-68
2023/06/24 07:34:55;;;;;;;14.07;7.32;;;;;;;-144.47;96.76;52770.69;5016936;28;20028;-71
2023/06/24 07:37:21;;;;;;;14.15;6.55;;;;;;;-144.47;95.54;52760.75;5018331;28;20097;-68
2023/06/24 07:39:46;;;;;;;11.20;6.60;;;;;;;-144.47;95.89;52768.69;5023210;28;20025;-68
2023/06/24 07:42:11;;;;;;;12.20;7.07;;;;;;;-144.47;95.65;52725.00;5025424;28;20049;-68
2023/06/24 07:44:39;;;;;;;13.70;7.28;;;;;;;-144.47;96.29;52772.69;5031032;28;20037;-67
2023/06/24 07:47:04;;;;;;;10.88;6.45;;;;;;;-144.47;97.39;52758.78;5012391;28;20026;-68
2023/06/24 07:49:30;;;;;;;14.75;7.93;;;;;;;-144.47;96.44;52752.81;5019491;28;20037;-69
2023/06/24 07:51:55;;;;;;;11.93;7.45;;;;;;;-144.47;96.67;52768.69;5020927;28;20491;-68
2023/06/24 07:54:21;;;;;;;13.48;6.68;;;;;;;-144.47;95.27;52770.69;5022701;28;20057;-69
2023/06/24 07:56:46;;;;;;;11.02;7.20;;;;;;;-144.47;94.40;52780.63;5007189;28;20502;-69
2023/06/24 07:59:11;;;;;;;15.55;7.22;;;;;;;-144.47;93.52;52754.81;5013904;28;20504;-66
2023/06/24 08:01:37;;;;;;;10.43;5.78;;;;;;;-144.47;93.54;52764.72;5014034;28;20030;-68
2023/06/24 08:04:02;;;;;;;9.93;6.38;;;;;;;-144.47;92.86;52782.59;5010883;28;20041;-69
2023/06/24 08:06:28;;;;;;;14.20;6.90;;;;;;;-144.47;93.67;52754.81;5011262;28;20022;-68
2023/06/24 08:08:53;;;;;;;11.50;6.68;;;;;;;-144.47;89.02;52760.75;5010670;28;20080;-68
2023/06/24 08:11:18;;;;;;;8.85;6.43;;;;;;;-144.47;89.18;52725.00;5011186;28;20044;-70
2023/06/24 08:13:44;;;;;;;13.20;6.07;;;;;;;-144.47;88.73;52752.81;5015708;28;20121;-67
2023/06/24 08:16:09;;;;;;;9.02;5.65;;;;;;;-144.47;90.50;52744.88;5015211;28;20029;-67
2023/06/24 08:18:34;;;;;;;17.30;6.53;;;;;;;-144.47;90.63;52736.94;5012107;28;20550;-69
2023/06/24 08:21:00;;;;;;;12.95;5.97;;;;;;;-144.47;88.04;52752.81;5014586;28;20018;-64
2023/06/24 08:23:25;;;;;;;8.65;5.35;;;;;;;-144.47;88.73;52752.81;5002371;28;20097;-71
2023/06/24 08:25:51;;;;;;;8.65;5.30;;;;;;;-144.47;84.17;52764.72;5009418;28;20500;-69
2023/06/24 08:28:16;;;;;;;14.23;5.38;;;;;;;-144.47;86.87;52740.91;5009239;28;20029;-69
2023/06/24 08:30:41;;;;;;;13.38;5.32;;;;;;;-144.47;83.89;52760.75;5014266;28;20491;-67
2023/06/24 08:33:07;;;;;;;11.88;5.68;;;;;;;-144.47;83.99;52744.88;5006063;28;20029;-68
2023/06/24 08:35:32;;;;;;;7.85;5.43;;;;;;;-144.47;82.87;52762.75;4988933;28;20057;-69
2023/06/24 08:37:57;;;;;;;11.52;5.68;;;;;;;-144.47;83.43;52740.91;5009928;28;20028;-68
2023/06/24 08:40:23;;;;;;;9.32;5.00;;;;;;;-144.47;81.14;52770.69;5015511;28;20388;-69
2023/06/24 08:42:48;;;;;;;9.50;4.55;;;;;;;-144.47;78.39;52754.81;4997950;28;20034;-70
2023/06/24 08:45:13;;;;;;;9.27;4.90;;;;;;;-144.47;77.97;52772.69;5024027;28;20506;-70
2023/06/24 08:47:40;;;;;;;9.77;4.68;;;;;;;-144.47;81.18;52736.94;5011208;28;20030;-68
2023/06/24 08:50:12;;;;;;;10.43;4.70;;;;;;;-144.47;79.99;52774.66;5016211;28;20022;-68
2023/06/24 08:52:41;;;;;;;8.60;4.90;;;;;;;-144.47;79.81;52732.94;5009291;28;20499;-67
2023/06/24 08:55:06;;;;;;;;;;;;;;;-144.47;79.10;52744.88;5007131;28;20114;-66
2023/06/24 08:57:32;;;;;;;9.75;4.72;;;;;;;-144.47;78.22;52740.91;5008648;28;20008;-69
2023/06/24 08:59:57;;;;;;;10.48;4.70;;;;;;;-144.47;77.25;52750.81;5006577;28;20120;-71
2023/06/24 09:02:23;;;;;;;8.90;4.20;;;;;;;-144.47;76.15;52740.91;5010393;28;20606;-69
2023/06/24 09:04:51;;;;;;;7.60;4.68;;;;;;;-144.47;76.73;52768.69;5008722;28;20068;-67
2023/06/24 09:07:25;;;;;;;6.13;4.30;;;;;;;-144.47;78.39;52758.78;5010119;28;20530;-68
2023/06/24 09:09:51;;;;;;;7.15;4.20;;;;;;;-144.47;75.88;52790.56;5015214;28;20503;-68
2023/06/24 09:12:16;;;;;;;7.88;4.20;;;;;;;-144.47;74.99;52782.59;5017482;28;20036;-68
2023/06/24 09:14:47;;;;;;;8.40;4.13;;;;;;;-144.47;73.24;52772.69;5008799;28;20041;-69
2023/06/24 09:17:12;;;;;;;7.53;4.05;;;;;;;-144.47;73.13;52742.88;5024405;28;20029;-68
2023/06/24 09:19:39;;;;;;;8.52;4.25;;;;;;;-144.47;73.31;52766.72;4992468;28;20083;-68
2023/06/24 09:22:09;;;;;;;8.85;4.65;;;;;;;-144.47;76.75;52750.81;5020599;28;20025;-69
2023/06/24 09:24:35;;;;;;;9.07;3.88;;;;;;;-144.47;75.97;52756.78;5000236;28;20409;-66
2023/06/24 09:27:02;;;;;;;7.93;4.13;;;;;;;-144.47;75.27;52780.63;5017945;28;20041;-68
2023/06/24 09:29:34;;;;;;;11.73;4.38;;;;;;;-144.47;71.99;52770.69;5020120;28;20033;-68
2023/06/24 09:32:04;;;;;;;9.82;4.10;;;;;;;-144.47;72.05;52756.78;5023941;28;20393;-66
2023/06/24 09:34:30;;;;;;;13.05;3.90;;;;;;;-144.47;72.34;52758.78;5021442;28;20724;-66
2023/06/24 09:36:57;;;;;;;8.60;4.43;;;;;;;-144.47;74.22;52776.66;5009030;28;20054;-65
2023/06/24 09:39:30;;;;;;;7.30;4.50;;;;;;;-144.47;75.21;52752.81;5023237;28;20090;-69
2023/06/24 09:42:01;;;;;;;8.95;4.75;;;;;;;-144.47;73.56;52752.81;5020573;28;20022;-67
2023/06/24 09:44:27;;;;;;;10.38;4.80;;;;;;;-144.47;74.51;52758.78;5005764;28;20019;-67
2023/06/24 09:46:53;;;;;;;9.85;4.22;;;;;;;-144.47;75.96;52764.72;5028933;28;20056;-68
2023/06/24 09:49:19;;;;;;;12.07;5.13;;;;;;;-144.47;76.63;52762.75;5011634;28;20104;-67
2023/06/24 09:51:46;;;;;;;8.20;3.97;;;;;;;-144.47;72.85;52778.63;4998204;28;20041;-69
2023/06/24 09:54:13;;;;;;;7.75;4.00;;;;;;;-144.47;69.90;52750.81;5018720;28;20105;-68
2023/06/24 09:56:49;;;;;;;12.48;4.35;;;;;;;-144.47;70.99;52768.69;5008827;28;20084;-68
2023/06/24 09:59:15;;;;;;;8.55;4.38;;;;;;;-144.47;69.26;52754.81;5005612;28;20038;-66
2023/06/24 10:01:43;;;;;;;9.93;4.10;;;;;;;-144.47;69.37;52786.56;5008483;28;20669;-69
2023/06/24 10:04:10;;;;;;;7.65;4.72;;;;;;;-144.47;69.75;52742.88;5009478;28;20080;-68
2023/06/24 10:06:35;;;;;;;9.30;4.03;;;;;;;-144.47;68.32;52744.88;5012680;28;20402;-71
2023/06/24 10:09:01;;;;;;;8.30;4.07;;;;;;;-144.47;66.70;52760.75;4993483;28;20072;-71
2023/06/24 10:11:27;;;;;;;6.38;3.55;;;;;;;-144.47;66.11;52782.59;5013257;28;20091;-64
2023/06/24 10:13:54;;;;;;;6.03;3.20;;;;;;;-144.47;61.55;52764.72;5013159;28;20057;-70
2023/06/24 10:16:20;;;;;;;6.53;3.45;;;;;;;-144.47;62.46;52758.78;5018725;28;20100;-69
2023/06/24 10:18:46;;;;;;;6.53;3.25;;;;;;;-144.47;61.37;52762.75;5033476;28;20068;-66
2023/06/24 10:21:12;;;;;;;6.82;2.88;;;;;;;-144.47;61.86;52776.66;5017029;28;20045;-69
2023/06/24 10:23:50;;;;;;;10.35;3.65;;;;;;;-144.47;62.59;52762.75;5013644;28;20072;-69
2023/06/24 10:26:28;;;;;;;5.72;3.30;;;;;;;-144.47;63.27;52784.59;4995012;28;20475;-68
2023/06/24 10:29:06;;;;;;;11.05;3.63;;;;;;;-144.47;66.79;52760.75;5019932;28;20061;-67
2023/06/24 10:31:40;;;;;;;6.30;3.80;;;;;;;-144.47;67.11;52788.56;5022471;28;20033;-68
2023/06/24 10:34:27;;;;;;;6.75;3.60;;;;;;;-144.47;66.92;52738.91;5021976;28;20065;-69
2023/06/24 10:37:00;;;;;;;7.00;3.20;;;;;;;-144.47;68.22;52752.81;5012042;28;20510;-69
2023/06/24 10:39:46;;;;;;;8.98;3.70;;;;;;;-144.47;64.13;52770.69;5012395;28;20029;-66
2023/06/24 10:42:23;;;;;;;7.38;3.53;;;;;;;-144.47;64.73;52776.66;4985520;28;20034;-66
2023/06/24 10:44:50;;;;;;;6.80;3.00;;;;;;;-144.47;64.46;52752.81;5016737;28;20100;-66
2023/06/24 10:47:16;;;;;;;5.35;3.30;;;;;;;-144.47;63.36;52784.59;5031680;28;20053;-68
2023/06/24 10:49:41;;;;;;;9.38;3.63;;;;;;;-144.47;63.10;52774.66;5019127;28;20122;-65
2023/06/24 10:52:10;;;;;;;5.93;3.17;;;;;;;-144.47;59.36;52750.81;5021772;28;20064;-67
2023/06/24 10:54:40;;;;;;;7.68;2.63;;;;;;;-144.47;55.60;52774.66;5019173;28;20028;-67
2023/06/24 10:57:07;;;;;;;9.40;3.10;;;;;;;-144.47;58.63;52782.59;5024750;28;20152;-69
2023/06/24 10:59:56;;;;;;;8.07;3.33;;;;;;;-144.47;61.09;52772.69;5006331;28;20105;-69
2023/06/24 11:02:24;;;;;;;6.18;3.05;;;;;;;-144.47;61.40;52796.50;5003463;28;20468;-68